Time;durP1;ratioP1;P1;durP2;ratioP2;P2;SDS_P1;SDS_P2;PMS_P1;PMS_P2;Temp;Humidity;BMP_temperature;BMP_pressure;BME280_temperature;BME280_humidity;BME280_pressure;Samples;Min_cycle;Max_cycle;Signal;HPM_P1;HPM_P2
2023/03/05 00:03:22;;;;;;;28.70;19.70;;;;;;;7.41;51.06;98071.72;8416142;28;20285;-68
2023/03/05 00:07:26;;;;;;;30.37;19.63;;;;;;;7.24;51.90;98077.38;8415910;28;20235;-68
2023/03/05 00:11:30;;;;;;;25.83;18.03;;;;;;;7.49;51.41;98068.09;8415979;28;20228;-68
2023/03/05 00:15:33;;;;;;;26.30;18.70;;;;;;;7.58;50.97;98060.91;8415684;28;20235;-68
2023/03/05 00:19:35;;;;;;;26.53;18.77;;;;;;;7.60;50.93;98063.44;8415638;28;20235;-68
2023/03/05 00:23:40;;;;;;;27.17;19.07;;;;;;;7.45;51.72;98072.50;8415565;28;20224;-67
2023/03/05 00:27:43;;;;;;;30.93;19.90;;;;;;;7.44;51.55;98068.22;8414895;28;20224;-67
2023/03/05 00:31:46;;;;;;;30.83;20.33;;;;;;;7.52;51.48;98050.81;8415025;28;20240;-68
2023/03/05 00:35:48;;;;;;;28.87;20.20;;;;;;;7.57;51.45;98068.69;8415070;28;20235;-68
2023/03/05 00:39:52;;;;;;;30.83;20.83;;;;;;;7.26;51.83;98055.91;8414755;28;20232;-67
2023/03/05 00:43:58;;;;;;;29.57;21.13;;;;;;;7.40;51.16;98059.72;8414502;28;20240;-68
2023/03/05 00:48:01;;;;;;;30.20;23.97;;;;;;;7.77;51.02;98055.19;8413576;28;20412;-68
2023/03/05 00:52:04;;;;;;;28.17;20.23;;;;;;;7.59;51.66;98067.75;8414461;28;20235;-68
2023/03/05 00:56:08;;;;;;;32.13;21.87;;;;;;;7.56;51.86;98056.72;8414339;28;20270;-67
2023/03/05 01:00:13;;;;;;;31.80;21.43;;;;;;;7.53;51.66;98061.94;8414134;28;20236;-67
2023/03/05 01:04:15;;;;;;;31.90;21.17;;;;;;;7.45;51.95;98046.72;8413869;28;20228;-68
2023/03/05 01:08:18;;;;;;;31.10;21.23;;;;;;;7.64;51.77;98054.72;8414096;28;20278;-68
2023/03/05 01:12:23;;;;;;;31.47;20.90;;;;;;;7.38;52.56;98045.22;8413869;28;20232;-68
2023/03/05 01:16:26;;;;;;;33.07;21.67;;;;;;;7.55;52.05;98044.69;8413752;28;20235;-68
2023/03/05 01:20:28;;;;;;;31.27;21.67;;;;;;;7.31;53.11;98054.00;8413622;28;20291;-68
2023/03/05 01:24:32;;;;;;;27.73;19.97;;;;;;;7.52;52.13;98042.22;8413249;28;20232;-68
2023/03/05 01:28:37;;;;;;;31.07;21.47;;;;;;;7.60;51.99;98042.84;8413344;28;20223;-68
2023/03/05 01:32:40;;;;;;;29.70;19.93;;;;;;;7.53;52.01;98026.69;8413341;28;20272;-68
2023/03/05 01:36:43;;;;;;;28.47;19.87;;;;;;;7.57;51.92;98017.16;8413000;28;20232;-68
2023/03/05 01:40:45;;;;;;;29.70;19.67;;;;;;;7.61;52.43;98029.88;8412790;28;20259;-68
2023/03/05 01:45:05;;;;;;;28.17;19.23;;;;;;;7.72;51.89;98031.28;8412919;28;20247;-68
2023/03/05 01:49:15;;;;;;;30.67;19.63;;;;;;;7.54;52.30;98019.81;8413040;28;20224;-68
2023/03/05 01:53:18;;;;;;;30.70;19.43;;;;;;;7.72;52.13;98020.97;8412509;28;20259;-68
2023/03/05 01:57:23;;;;;;;30.10;19.80;;;;;;;7.62;52.15;98023.84;8412569;28;20228;-68
2023/03/05 02:01:27;;;;;;;29.10;19.37;;;;;;;7.51;52.25;98013.03;8412386;28;20224;-68
2023/03/05 02:05:31;;;;;;;27.07;18.60;;;;;;;7.68;51.79;98006.50;8412385;28;20232;-70
2023/03/05 02:09:37;;;;;;;26.00;19.07;;;;;;;7.63;51.73;98014.38;8412021;28;20534;-67
2023/03/05 02:13:41;;;;;;;27.60;18.37;;;;;;;7.61;51.99;98001.53;8411894;28;20232;-68
2023/03/05 02:17:52;;;;;;;27.87;19.10;;;;;;;7.35;52.55;97981.75;8411113;28;20547;-67
2023/03/05 02:21:56;;;;;;;22.27;16.57;;;;;;;7.56;52.12;98003.44;8412020;28;20232;-68
2023/03/05 02:25:59;;;;;;;26.70;17.87;;;;;;;7.45;52.00;97959.09;8411594;28;20239;-69
2023/03/05 02:30:03;;;;;;;25.53;17.23;;;;;;;7.53;51.59;97945.97;8411614;28;20530;-67
2023/03/05 02:34:06;;;;;;;26.50;18.33;;;;;;;7.41;52.42;97958.34;8411842;28;20235;-67
2023/03/05 02:38:10;;;;;;;28.03;17.60;;;;;;;7.68;51.85;97970.41;8411642;28;20224;-67
2023/03/05 02:42:12;;;;;;;23.90;17.07;;;;;;;7.65;51.58;97971.34;8411634;28;20593;-67
2023/03/05 02:46:15;;;;;;;23.57;16.13;;;;;;;7.73;51.46;97968.50;8411711;28;20239;-67
2023/03/05 02:50:18;;;;;;;21.60;15.47;;;;;;;7.62;51.65;97963.72;8411565;28;20269;-67
2023/03/05 02:54:22;;;;;;;22.67;16.37;;;;;;;7.73;51.14;97971.09;8411459;28;20232;-67
2023/03/05 02:58:25;;;;;;;24.23;15.80;;;;;;;7.68;51.25;97963.53;8411095;28;20232;-68
2023/03/05 03:02:28;;;;;;;22.37;16.23;;;;;;;7.65;51.30;97955.88;8411528;28;20416;-67
2023/03/05 03:06:30;;;;;;;24.40;15.63;;;;;;;7.75;50.93;97953.84;8411177;28;20247;-67
2023/03/05 03:10:34;;;;;;;25.53;16.87;;;;;;;7.66;50.93;97956.75;8411216;28;20231;-67
2023/03/05 03:14:40;;;;;;;22.57;15.90;;;;;;;7.59;51.08;97945.78;8411098;28;20420;-67
2023/03/05 03:18:46;;;;;;;27.67;16.90;;;;;;;7.59;51.14;97946.59;8410913;28;20295;-67
2023/03/05 03:22:49;;;;;;;26.53;17.57;;;;;;;7.57;51.41;97944.97;8414276;28;20236;-67
2023/03/05 03:26:54;;;;;;;24.50;17.33;;;;;;;7.69;50.90;97936.00;8417223;28;20316;-67
2023/03/05 03:30:56;;;;;;;30.97;17.93;;;;;;;7.73;50.78;97938.44;8417315;28;20236;-69
2023/03/05 03:34:59;;;;;;;26.13;17.87;;;;;;;7.76;51.00;97930.59;8417058;28;20247;-67
2023/03/05 03:39:02;;;;;;;29.07;19.20;;;;;;;7.76;51.17;97924.59;8417069;28;20330;-67
2023/03/05 03:43:07;;;;;;;28.43;17.97;;;;;;;7.66;50.78;97894.88;8416432;28;20220;-67
2023/03/05 03:47:09;;;;;;;29.83;18.60;;;;;;;7.74;50.78;97908.34;8416712;28;20227;-67
2023/03/05 03:51:12;;;;;;;28.37;19.63;;;;;;;7.72;50.99;97915.28;8416571;28;20538;-66
2023/03/05 03:55:15;;;;;;;32.03;20.93;;;;;;;7.70;51.26;97919.66;8416374;28;20231;-67
2023/03/05 03:59:19;;;;;;;31.13;20.63;;;;;;;7.60;51.13;97909.66;8416134;28;20231;-67
2023/03/05 04:03:21;;;;;;;29.00;19.50;;;;;;;7.70;51.39;97917.06;8416251;28;20232;-67
2023/03/05 04:07:24;;;;;;;35.37;21.37;;;;;;;7.59;51.79;97913.09;8416042;28;20232;-68
2023/03/05 04:11:27;;;;;;;33.23;20.07;;;;;;;7.56;51.68;97909.81;8415962;28;20322;-67
2023/03/05 04:15:32;;;;;;;32.40;21.43;;;;;;;7.67;51.41;97907.69;8415565;28;20253;-67
2023/03/05 04:19:35;;;;;;;31.63;21.27;;;;;;;7.60;51.66;97908.81;8415859;28;20228;-67
2023/03/05 04:23:38;;;;;;;31.30;21.30;;;;;;;7.64;51.47;97897.50;8415685;28;20546;-68
2023/03/05 04:27:41;;;;;;;33.03;21.27;;;;;;;7.54;51.82;97896.09;8415487;28;20236;-67
2023/03/05 04:31:45;;;;;;;30.27;21.27;;;;;;;7.60;51.84;97896.75;8414799;28;20255;-67
2023/03/05 04:35:48;;;;;;;31.90;21.23;;;;;;;7.58;52.05;97895.13;8415009;28;20465;-67
2023/03/05 04:39:51;;;;;;;34.83;21.10;;;;;;;6.62;51.75;97730.84;8415048;28;20401;-67
2023/03/05 04:43:53;;;;;;;35.80;21.67;;;;;;;7.54;51.97;97889.25;8414993;28;20232;-67
2023/03/05 04:47:58;;;;;;;37.47;21.93;;;;;;;7.55;51.83;97882.34;8414815;28;20515;-67
2023/03/05 04:52:00;;;;;;;32.40;21.30;;;;;;;7.62;51.99;97883.81;8414544;28;20289;-67
2023/03/05 04:56:04;;;;;;;35.40;22.13;;;;;;;7.61;51.92;97880.38;8414426;28;20228;-67
2023/03/05 05:00:12;;;;;;;32.07;21.37;;;;;;;7.66;51.83;97882.00;8414439;28;20252;-67
2023/03/05 05:04:17;;;;;;;31.97;21.87;;;;;;;7.03;51.96;97803.31;8414000;28;20238;-67
2023/03/05 05:08:20;;;;;;;34.27;23.67;;;;;;;7.54;51.98;97880.66;8414343;28;20227;-67
2023/03/05 05:12:22;;;;;;;33.47;21.43;;;;;;;7.61;51.88;97870.06;8413753;28;20235;-67
2023/03/05 05:16:25;;;;;;;32.10;20.97;;;;;;;7.57;52.05;97867.66;8414045;28;20420;-67
2023/03/05 05:20:29;;;;;;;30.90;21.03;;;;;;;7.57;52.18;97873.66;8413918;28;20238;-67
2023/03/05 05:24:32;;;;;;;32.60;21.23;;;;;;;7.43;52.40;97865.56;8413634;28;20232;-67
2023/03/05 05:28:37;;;;;;;33.17;21.33;;;;;;;7.54;52.29;97860.88;8413353;28;20232;-67
2023/03/05 05:32:40;;;;;;;31.47;21.57;;;;;;;7.47;52.50;97863.72;8413441;28;20249;-67
2023/03/05 05:36:44;;;;;;;32.13;20.80;;;;;;;7.46;52.58;97864.59;8412728;28;20294;-67
2023/03/05 05:40:47;;;;;;;31.10;21.23;;;;;;;7.48;52.58;97860.25;8412827;28;20439;-67
2023/03/05 05:44:49;;;;;;;31.10;20.13;;;;;;;7.50;52.68;97869.63;8412007;28;20228;-67
2023/03/05 05:48:52;;;;;;;32.77;21.43;;;;;;;7.43;52.72;97861.25;8412798;28;20247;-67
2023/03/05 05:52:59;;;;;;;32.57;21.53;;;;;;;7.45;52.96;97868.94;8412531;28;20238;-67
2023/03/05 05:57:02;;;;;;;31.97;21.90;;;;;;;7.42;53.31;97869.88;8412396;28;20230;-67
2023/03/05 06:01:12;;;;;;;32.47;22.10;;;;;;;7.38;52.89;97860.53;8412208;28;20220;-67
2023/03/05 06:05:15;;;;;;;32.77;22.13;;;;;;;7.34;53.10;97865.88;8412310;28;20247;-67
2023/03/05 06:09:19;;;;;;;35.67;22.93;;;;;;;7.41;53.09;97859.63;8412288;28;20322;-67
2023/03/05 06:13:22;;;;;;;34.17;22.80;;;;;;;7.50;53.18;97869.63;8411715;28;20535;-67
2023/03/05 06:17:25;;;;;;;35.63;22.37;;;;;;;7.49;53.25;97861.94;8412189;28;20228;-67
2023/03/05 06:21:33;;;;;;;37.60;23.43;;;;;;;7.56;52.90;97871.16;8412004;28;20228;-67
2023/03/05 06:25:37;;;;;;;31.27;21.80;;;;;;;7.51;53.35;97866.13;8411420;28;20437;-68
2023/03/05 06:29:40;;;;;;;33.43;22.43;;;;;;;7.48;53.39;97870.53;8411643;28;20424;-67
2023/03/05 06:33:43;;;;;;;35.93;21.90;;;;;;;7.21;53.96;97844.81;8411531;28;20239;-67
2023/03/05 06:37:46;;;;;;;33.67;21.63;;;;;;;7.36;53.81;97877.78;8411732;28;20273;-67
2023/03/05 06:41:51;;;;;;;34.47;21.90;;;;;;;7.48;53.77;97870.53;8411262;28;20231;-67
2023/03/05 06:46:02;;;;;;;31.67;21.63;;;;;;;7.50;53.69;97873.91;8411604;28;20446;-67
2023/03/05 06:50:06;;;;;;;32.23;21.23;;;;;;;7.44;53.89;97875.81;8411686;28;20516;-67
2023/03/05 06:54:10;;;;;;;33.67;22.20;;;;;;;7.29;54.14;97868.59;8411397;28;20251;-67
2023/03/05 06:58:15;;;;;;;35.33;22.50;;;;;;;7.59;53.15;97864.13;8416962;28;20237;-67
2023/03/05 07:02:18;;;;;;;36.00;21.93;;;;;;;7.42;53.50;97867.31;8418257;28;20224;-67
2023/03/05 07:06:22;;;;;;;32.33;21.80;;;;;;;7.66;53.04;97863.94;8418072;28;20243;-67
2023/03/05 07:10:24;;;;;;;31.83;21.47;;;;;;;7.59;53.26;97868.47;8418057;28;20228;-68
2023/03/05 07:14:28;;;;;;;29.37;19.60;;;;;;;7.70;52.82;97866.34;8417744;28;20224;-67
2023/03/05 07:18:31;;;;;;;31.57;20.63;;;;;;;7.81;52.75;97872.00;8417846;28;20430;-68
2023/03/05 07:22:34;;;;;;;31.70;20.57;;;;;;;7.83;52.55;97864.22;8417596;28;20231;-68
2023/03/05 07:26:37;;;;;;;32.13;19.97;;;;;;;7.95;52.51;97875.81;8417114;28;20236;-67
2023/03/05 07:30:41;;;;;;;31.67;20.17;;;;;;;7.81;53.16;97863.41;8417369;28;20522;-67
2023/03/05 07:34:44;;;;;;;31.70;20.77;;;;;;;7.92;52.65;97863.88;8416795;28;20250;-66
2023/03/05 07:38:47;;;;;;;29.83;19.67;;;;;;;7.77;53.04;97854.13;8416860;28;20266;-67
2023/03/05 07:42:49;;;;;;;29.70;19.37;;;;;;;8.07;52.29;97859.06;8416859;28;20228;-67
2023/03/05 07:46:54;;;;;;;30.50;19.37;;;;;;;8.11;51.78;97860.63;8416710;28;20236;-67
2023/03/05 07:51:01;;;;;;;26.30;17.67;;;;;;;8.38;51.42;97858.81;8416744;28;20229;-66
2023/03/05 07:55:04;;;;;;;25.53;16.27;;;;;;;8.32;51.09;97854.72;8416668;28;20236;-68
2023/03/05 07:59:11;;;;;;;18.57;13.80;;;;;;;7.95;51.88;97856.03;8415595;28;20260;-68
2023/03/05 08:03:15;;;;;;;19.60;12.43;;;;;;;8.08;50.07;97855.59;8416873;28;20220;-68
2023/03/05 08:07:18;;;;;;;15.57;10.23;;;;;;;8.16;49.19;97853.56;8412201;28;20232;-68
2023/03/05 08:11:21;;;;;;;15.33;8.87;;;;;;;8.36;49.06;97858.84;8416088;28;20239;-68
2023/03/05 08:15:24;;;;;;;12.10;8.83;;;;;;;8.14;49.42;97857.94;8416523;28;20250;-68
2023/03/05 08:19:28;;;;;;;14.57;9.43;;;;;;;8.00;49.00;97856.72;8416500;28;20228;-67
2023/03/05 08:23:33;;;;;;;16.03;11.47;;;;;;;8.33;48.71;97851.22;8416347;28;20228;-68
2023/03/05 08:27:38;;;;;;;15.10;9.77;;;;;;;8.25;48.51;97845.50;8416040;28;20255;-68
2023/03/05 08:31:45;;;;;;;11.80;8.37;;;;;;;7.94;49.42;97828.56;8448757;28;20231;-68
2023/03/05 08:35:49;;;;;;;13.70;9.57;;;;;;;7.83;49.14;97844.41;8448903;28;20223;-68
2023/03/05 08:39:55;;;;;;;11.73;7.60;;;;;;;7.67;48.90;97842.41;8448356;28;20262;-68
2023/03/05 08:43:57;;;;;;;11.03;8.00;;;;;;;7.74;48.77;97844.72;8448701;28;20231;-68
2023/03/05 08:48:00;;;;;;;10.60;7.83;;;;;;;8.00;48.42;97843.81;8448658;28;20238;-67
2023/03/05 08:52:05;;;;;;;12.10;7.50;;;;;;;7.52;49.17;97841.19;8448200;28;20235;-69
2023/03/05 08:56:08;;;;;;;13.70;8.03;;;;;;;7.52;49.28;97833.47;8448511;28;20227;-67
2023/03/05 09:00:15;;;;;;;10.10;7.60;;;;;;;7.64;48.33;97815.03;8448622;28;20230;-67
2023/03/05 09:04:17;;;;;;;9.40;6.83;;;;;;;8.07;48.28;97828.13;8448431;28;20227;-67
2023/03/05 09:08:22;;;;;;;9.40;6.23;;;;;;;8.02;48.31;97836.03;8448187;28;20235;-67
2023/03/05 09:12:25;;;;;;;8.77;5.77;;;;;;;7.80;48.44;97836.78;8447722;28;20227;-69
2023/03/05 09:16:28;;;;;;;6.80;4.40;;;;;;;7.11;48.36;97838.28;8447586;28;20580;-68
2023/03/05 09:20:32;;;;;;;4.83;3.40;;;;;;;7.32;47.91;97832.41;8446364;28;20349;-68
2023/03/05 09:24:36;;;;;;;5.83;2.60;;;;;;;6.79;48.34;97832.41;8447332;28;20235;-68
2023/03/05 09:28:42;;;;;;;4.50;2.33;;;;;;;7.09;47.96;97824.63;8444982;28;20242;-67
2023/03/05 09:32:45;;;;;;;4.13;2.30;;;;;;;6.95;46.97;97828.47;8413395;28;20551;-68
2023/03/05 09:36:47;;;;;;;4.57;3.00;;;;;;;7.46;46.72;97819.06;8413666;28;20232;-68
2023/03/05 09:41:01;;;;;;;4.23;2.57;;;;;;;6.93;47.63;97799.38;8413194;28;20305;-68
2023/03/05 09:45:16;;;;;;;5.40;2.40;;;;;;;7.47;47.27;97813.03;8413564;28;20511;-67
2023/03/05 09:49:24;;;;;;;3.93;2.60;;;;;;;8.01;46.33;97817.16;8413574;28;20232;-69
2023/03/05 09:53:35;;;;;;;6.93;2.80;;;;;;;7.70;47.26;97813.97;8413158;28;20224;-68
2023/03/05 09:57:43;;;;;;;2.97;2.57;;;;;;;7.87;47.01;97806.47;8413159;28;20319;-69
2023/03/05 10:01:46;;;;;;;7.33;3.00;;;;;;;8.08;46.28;97798.84;8412566;28;20232;-69
2023/03/05 10:06:02;;;;;;;5.07;2.53;;;;;;;8.22;45.11;97810.34;8412791;28;20329;-66
2023/03/05 10:10:10;;;;;;;4.17;2.83;;;;;;;8.34;45.68;97801.31;8412722;28;20224;-67
2023/03/05 10:14:17;;;;;;;4.67;3.00;;;;;;;7.68;45.55;97787.41;8412603;28;20232;-67
2023/03/05 10:18:27;;;;;;;5.10;2.67;;;;;;;8.06;44.70;97777.44;8412743;28;20227;-68
2023/03/05 10:22:31;;;;;;;4.33;2.30;;;;;;;7.72;43.56;97701.34;8412754;28;20229;-67
2023/03/05 10:26:44;;;;;;;3.57;2.70;;;;;;;8.61;42.97;97790.84;8412204;28;20239;-67
2023/03/05 10:31:08;;;;;;;4.07;2.30;;;;;;;8.38;42.44;97761.56;8412379;28;20220;-67
2023/03/05 10:35:29;;;;;;;4.33;2.50;;;;;;;8.56;42.73;97783.25;8412913;28;20231;-69
2023/03/05 10:39:43;;;;;;;3.17;1.60;;;;;;;8.90;40.50;97763.03;8412496;28;20418;-69
2023/03/05 10:43:52;;;;;;;3.13;2.13;;;;;;;8.93;40.92;97779.25;8411966;28;20392;-69
2023/03/05 10:47:59;;;;;;;4.27;2.00;;;;;;;8.79;40.72;97766.03;8412282;28;20414;-68
2023/03/05 10:52:08;;;;;;;4.17;2.00;;;;;;;8.74;40.87;97773.13;8412090;28;20232;-69
2023/03/05 10:56:12;;;;;;;2.77;2.10;;;;;;;8.46;41.45;97763.06;8412331;28;20228;-68
2023/03/05 11:00:21;;;;;;;3.30;2.10;;;;;;;8.56;41.42;97761.78;8412316;28;20297;-68
2023/03/05 11:04:31;;;;;;;2.73;1.57;;;;;;;8.38;41.11;97756.41;8412088;28;20412;-68
2023/03/05 11:08:35;;;;;;;3.07;1.50;;;;;;;8.64;40.17;97741.66;8412215;28;20255;-67
2023/03/05 11:12:39;;;;;;;5.33;3.33;;;;;;;8.61;39.78;97716.00;8411843;28;20224;-68
2023/03/05 11:16:49;;;;;;;3.60;2.13;;;;;;;8.76;40.53;97728.28;8411660;28;20497;-68
2023/03/05 11:21:07;;;;;;;3.57;1.97;;;;;;;8.95;39.43;97720.59;8411878;28;20231;-67
2023/03/05 11:25:17;;;;;;;2.97;1.80;;;;;;;8.55;40.56;97721.41;8411506;28;20231;-68
2023/03/05 11:29:23;;;;;;;2.70;1.43;;;;;;;8.70;39.68;97720.78;8411696;28;20251;-68
2023/03/05 11:33:26;;;;;;;2.47;1.60;;;;;;;8.77;39.77;97721.34;8411503;28;20535;-68
2023/03/05 11:37:31;;;;;;;2.20;1.90;;;;;;;8.64;39.65;97707.28;8411537;28;20278;-68
2023/03/05 11:41:37;;;;;;;3.87;1.80;;;;;;;8.05;39.79;97709.53;8411557;28;20235;-67
2023/03/05 11:45:40;;;;;;;1.97;1.50;;;;;;;8.25;40.32;97708.78;8416982;28;20220;-68
2023/03/05 11:49:45;;;;;;;3.50;2.00;;;;;;;8.64;39.51;97700.34;8417124;28;20504;-68
2023/03/05 11:53:52;;;;;;;2.67;2.00;;;;;;;8.59;39.94;97697.16;8417435;28;20298;-67
2023/03/05 11:58:03;;;;;;;4.30;2.17;;;;;;;8.74;39.76;97695.69;8417363;28;20228;-67
2023/03/05 12:02:16;;;;;;;3.10;1.63;;;;;;;8.61;39.28;97695.34;8417315;28;20231;-67
2023/03/05 12:06:28;;;;;;;5.40;2.20;;;;;;;8.82;39.76;97688.44;8416811;28;20228;-68
2023/03/05 12:10:32;;;;;;;3.00;2.47;;;;;;;8.87;39.82;97685.66;8416730;28;20232;-67
2023/03/05 12:14:39;;;;;;;4.23;2.17;;;;;;;8.80;39.74;97677.34;8416860;28;20283;-68
2023/03/05 12:18:52;;;;;;;3.30;1.70;;;;;;;8.84;40.33;97672.91;8416484;28;20220;-67
2023/03/05 12:22:56;;;;;;;3.47;1.70;;;;;;;8.77;39.16;97657.63;8416539;28;20225;-68
2023/03/05 12:27:08;;;;;;;2.87;1.80;;;;;;;8.64;39.22;97650.47;8416244;28;20232;-68
2023/03/05 12:31:27;;;;;;;1.87;1.20;;;;;;;8.45;38.99;97646.06;8416070;28;20274;-68
2023/03/05 12:35:35;;;;;;;2.43;1.50;;;;;;;8.90;38.93;97647.66;8416044;28;20232;-68
2023/03/05 12:39:48;;;;;;;2.53;1.47;;;;;;;8.97;38.41;97643.06;8416014;28;20235;-68
2023/03/05 12:44:14;;;;;;;2.07;1.37;;;;;;;8.49;38.70;97634.75;8415560;28;20224;-68
2023/03/05 12:48:50;;;;;;;12.27;3.40;;;;;;;11.82;68.64;97567.84;8415566;28;20241;-69
2023/03/05 12:52:53;;;;;;;4.63;1.87;;;;;;;12.29;49.43;97631.81;8338898;28;20234;-69
2023/03/05 12:56:57;;;;;;;2.83;1.77;;;;;;;11.38;36.65;97622.09;8376800;28;20241;-68
2023/03/05 13:01:03;;;;;;;1.40;1.30;;;;;;;10.28;36.37;97606.91;8415504;28;20235;-68
2023/03/05 13:05:20;;;;;;;1.90;1.70;;;;;;;9.95;37.90;97604.19;8414317;28;20414;-69
2023/03/05 13:09:26;;;;;;;2.23;1.93;;;;;;;9.95;36.47;97604.19;8415049;28;20238;-68
2023/03/05 13:13:32;;;;;;;3.53;2.00;;;;;;;9.57;37.80;97591.28;8414901;28;20230;-69
2023/03/05 13:17:38;;;;;;;2.57;2.20;;;;;;;9.61;37.63;97603.16;8414842;28;20233;-68
2023/03/05 13:21:44;;;;;;;2.73;2.20;;;;;;;9.45;38.79;97599.63;8447872;28;20401;-68
2023/03/05 13:25:57;;;;;;;4.40;1.90;;;;;;;9.72;39.95;97593.16;8448323;28;20228;-68
2023/03/05 13:30:00;;;;;;;2.93;2.43;;;;;;;9.28;37.87;97582.28;8447957;28;20243;-69
2023/03/05 13:34:13;;;;;;;3.53;2.70;;;;;;;9.61;37.56;97594.56;8447752;28;20230;-69
2023/03/05 13:38:25;;;;;;;3.57;2.80;;;;;;;9.37;37.95;97580.13;8447597;28;20561;-68
2023/03/05 13:42:31;;;;;;;3.90;2.53;;;;;;;9.10;38.24;97583.94;8447600;28;20234;-68
2023/03/05 13:46:37;;;;;;;3.60;2.60;;;;;;;8.94;39.00;97568.28;8447406;28;20231;-68
2023/03/05 13:50:41;;;;;;;3.60;2.80;;;;;;;9.27;38.26;97578.03;8447085;28;20550;-70
2023/03/05 13:54:45;;;;;;;8.00;4.40;;;;;;;9.13;38.87;97574.31;8445969;28;20243;-68
2023/03/05 13:58:51;;;;;;;4.67;2.63;;;;;;;9.17;38.98;97552.59;8446410;28;20234;-69
2023/03/05 14:02:56;;;;;;;4.53;2.90;;;;;;;9.12;39.48;97567.47;8446900;28;20239;-68
2023/03/05 14:07:05;;;;;;;4.63;3.10;;;;;;;9.31;38.67;97562.31;8446127;28;20425;-68
2023/03/05 14:11:17;;;;;;;4.80;3.00;;;;;;;9.20;39.07;97549.06;8446431;28;20234;-68
2023/03/05 14:15:23;;;;;;;4.03;3.63;;;;;;;9.41;38.62;97542.06;8445883;28;20527;-71
2023/03/05 14:19:33;;;;;;;4.53;3.33;;;;;;;9.33;38.96;97545.00;8446585;28;20227;-71
2023/03/05 14:23:41;;;;;;;6.00;4.20;;;;;;;9.30;39.37;97542.53;8446207;28;20231;-71
2023/03/05 14:27:47;;;;;;;5.50;5.00;;;;;;;9.25;39.39;97531.56;8445865;28;20227;-70
2023/03/05 14:31:51;;;;;;;8.80;6.40;;;;;;;9.18;39.65;97533.63;8446250;28;20224;-70
2023/03/05 14:35:54;;;;;;;4.60;3.87;;;;;;;9.16;39.39;97526.84;8445942;28;20227;-70
2023/03/05 14:40:04;;;;;;;5.97;4.43;;;;;;;8.89;39.82;97516.00;8445620;28;20239;-70
2023/03/05 14:44:12;;;;;;;4.80;3.13;;;;;;;8.93;39.62;97515.81;8445799;28;20234;-71
2023/03/05 14:48:17;;;;;;;5.33;3.63;;;;;;;9.06;39.62;97507.50;8445947;28;20241;-70
2023/03/05 14:52:23;;;;;;;5.97;3.43;;;;;;;8.71;40.42;97495.25;8445643;28;20224;-70
2023/03/05 14:56:28;;;;;;;4.43;3.33;;;;;;;8.83;39.71;97495.63;8445745;28;20411;-70
2023/03/05 15:00:31;;;;;;;4.70;3.37;;;;;;;9.05;39.33;97493.75;8445614;28;20297;-71
2023/03/05 15:04:34;;;;;;;4.40;3.30;;;;;;;8.88;39.12;97494.50;8445535;28;20247;-71
2023/03/05 15:08:38;;;;;;;4.20;3.10;;;;;;;9.24;38.94;97485.16;8445361;28;20235;-69
2023/03/05 15:12:43;;;;;;;3.93;2.87;;;;;;;8.90;38.62;97482.38;8445169;28;20220;-70
2023/03/05 15:16:46;;;;;;;6.07;3.20;;;;;;;9.16;38.78;97481.19;8446934;28;20231;-70
2023/03/05 15:20:50;;;;;;;3.87;2.80;;;;;;;8.98;39.14;97466.53;8452032;28;20527;-70
2023/03/05 15:24:53;;;;;;;4.43;3.13;;;;;;;9.16;38.91;97464.84;8451898;28;20291;-70
2023/03/05 15:28:58;;;;;;;4.27;3.30;;;;;;;8.65;39.08;97458.56;8451400;28;20231;-69
2023/03/05 15:33:02;;;;;;;4.07;3.07;;;;;;;8.66;38.95;97453.31;8451549;28;20232;-69
2023/03/05 15:37:05;;;;;;;5.27;3.97;;;;;;;8.28;39.67;97450.69;8451661;28;20225;-67
2023/03/05 15:41:08;;;;;;;3.87;2.90;;;;;;;8.70;39.20;97449.72;8451233;28;20231;-68
2023/03/05 15:45:12;;;;;;;5.93;4.00;;;;;;;8.75;38.87;97446.91;8450833;28;20228;-67
2023/03/05 15:49:15;;;;;;;5.13;3.77;;;;;;;8.97;41.83;97434.69;8451160;28;20239;-68
2023/03/05 15:53:19;;;;;;;5.82;4.80;;;;;;;8.98;38.76;97431.19;8450055;28;20411;-67
2023/03/05 15:57:22;;;;;;;5.80;3.90;;;;;;;8.72;38.75;97411.75;8450790;28;20223;-68
2023/03/05 16:01:26;;;;;;;4.60;3.87;;;;;;;8.85;39.40;97424.91;8450837;28;20228;-67
2023/03/05 16:05:29;;;;;;;4.53;3.87;;;;;;;8.86;39.59;97418.88;8450444;28;20523;-67
2023/03/05 16:09:35;;;;;;;5.97;4.30;;;;;;;8.83;39.86;97385.44;8450262;28;20239;-68
2023/03/05 16:13:38;;;;;;;4.20;3.60;;;;;;;8.94;40.26;97415.94;8450457;28;20238;-67
2023/03/05 16:17:44;;;;;;;7.07;3.70;;;;;;;8.84;40.83;97415.53;8449853;28;20418;-67
2023/03/05 16:21:49;;;;;;;7.40;6.03;;;;;;;8.94;41.05;97408.19;8449964;28;20356;-67
2023/03/05 16:25:52;;;;;;;5.17;4.20;;;;;;;8.82;41.32;97414.75;8449751;28;20305;-67
2023/03/05 16:29:56;;;;;;;5.30;3.97;;;;;;;8.81;41.24;97400.16;8449433;28;20550;-66
2023/03/05 16:34:01;;;;;;;5.63;3.87;;;;;;;8.68;41.29;97397.31;8449832;28;20247;-68
2023/03/05 16:38:03;;;;;;;4.77;3.87;;;;;;;8.82;41.09;97391.50;8449226;28;20290;-67
2023/03/05 16:42:07;;;;;;;4.73;3.90;;;;;;;8.84;41.18;97392.28;8449384;28;20226;-67
2023/03/05 16:46:10;;;;;;;6.20;4.33;;;;;;;8.75;41.43;97392.69;8449317;28;20231;-67
2023/03/05 16:50:14;;;;;;;5.27;3.90;;;;;;;8.78;41.35;97397.72;8449136;28;20223;-67
2023/03/05 16:54:17;;;;;;;4.87;3.97;;;;;;;8.63;41.48;97388.94;8448694;28;20482;-70
2023/03/05 16:58:20;;;;;;;5.23;4.30;;;;;;;8.69;41.71;97388.66;8448758;28;20542;-69
2023/03/05 17:02:22;;;;;;;5.47;4.00;;;;;;;8.39;41.86;97386.50;8449031;28;20238;-69
2023/03/05 17:06:29;;;;;;;5.70;4.70;;;;;;;8.53;41.89;97379.94;8448629;28;20219;-69
2023/03/05 17:10:34;;;;;;;6.93;5.37;;;;;;;8.41;41.91;97370.97;8448637;28;20250;-69
2023/03/05 17:14:37;;;;;;;5.50;4.53;;;;;;;8.52;42.06;97379.09;8447853;28;20231;-69
2023/03/05 17:18:42;;;;;;;6.70;5.07;;;;;;;8.47;42.07;97377.63;8447009;28;20227;-69
2023/03/05 17:22:46;;;;;;;7.47;5.70;;;;;;;8.39;42.17;97375.38;8447542;28;20542;-69
2023/03/05 17:26:49;;;;;;;10.50;7.07;;;;;;;8.41;42.20;97376.13;8448210;28;20236;-68
2023/03/05 17:30:52;;;;;;;13.80;8.40;;;;;;;8.28;42.33;97365.53;8447558;28;20242;-66
2023/03/05 17:34:55;;;;;;;7.20;5.60;;;;;;;8.29;42.25;97374.94;8447737;28;20228;-68
2023/03/05 17:39:00;;;;;;;11.40;7.60;;;;;;;8.48;41.87;97375.00;8447648;28;20445;-68
2023/03/05 17:43:02;;;;;;;7.53;5.97;;;;;;;8.29;42.12;97376.69;8447060;28;20527;-68
2023/03/05 17:47:05;;;;;;;9.17;6.93;;;;;;;8.38;41.94;97366.78;8447926;28;20229;-68
2023/03/05 17:51:10;;;;;;;9.23;6.40;;;;;;;8.28;41.96;97349.22;8447215;28;20234;-68
2023/03/05 17:55:16;;;;;;;8.50;6.20;;;;;;;8.47;41.82;97372.47;8447243;28;20526;-68
2023/03/05 17:59:19;;;;;;;7.03;5.10;;;;;;;8.32;41.69;97371.38;8447150;28;20231;-68
2023/03/05 18:03:23;;;;;;;8.47;5.17;;;;;;;8.42;41.95;97375.28;8446798;28;20231;-68
2023/03/05 18:07:26;;;;;;;7.50;5.70;;;;;;;8.67;42.83;97379.31;8446144;28;20454;-69
2023/03/05 18:11:33;;;;;;;7.93;6.87;;;;;;;8.39;42.38;97375.38;8446626;28;20234;-69
2023/03/05 18:15:40;;;;;;;7.30;4.90;;;;;;;8.35;42.13;97377.25;8446300;28;20246;-68
2023/03/05 18:19:43;;;;;;;7.20;5.63;;;;;;;8.46;42.02;97376.81;8446279;28;20229;-68
2023/03/05 18:23:48;;;;;;;6.23;5.17;;;;;;;8.37;42.14;97369.44;8446168;28;20426;-68
2023/03/05 18:27:52;;;;;;;8.33;6.50;;;;;;;8.31;42.27;97372.31;8446279;28;20542;-68
2023/03/05 18:31:55;;;;;;;7.77;5.60;;;;;;;8.29;42.52;97369.78;8446123;28;20234;-68
2023/03/05 18:35:58;;;;;;;7.23;5.60;;;;;;;8.33;42.36;97361.00;8445918;28;20227;-68
2023/03/05 18:40:02;;;;;;;10.20;5.80;;;;;;;8.29;42.27;97364.63;8445860;28;20430;-69
2023/03/05 18:44:07;;;;;;;8.50;6.27;;;;;;;8.27;42.37;97361.28;8445838;28;20234;-68
2023/03/05 18:48:10;;;;;;;13.53;5.03;;;;;;;8.40;57.25;97356.41;8445849;28;20226;-68
2023/03/05 18:52:13;;;;;;;8.57;5.07;;;;;;;11.47;57.48;97370.09;8445289;28;20236;-69
2023/03/05 18:56:15;;;;;;;8.03;6.00;;;;;;;10.25;40.53;97347.41;8445574;28;20227;-67
2023/03/05 19:00:23;;;;;;;7.20;6.20;;;;;;;9.35;41.72;97356.28;8445948;28;20236;-70
2023/03/05 19:04:27;;;;;;;8.47;6.07;;;;;;;9.07;41.63;97360.19;8445692;28;20487;-70
2023/03/05 19:08:30;;;;;;;8.40;6.27;;;;;;;8.75;42.18;97349.63;8445562;28;20328;-70
2023/03/05 19:16:52;;;;;;;9.93;6.90;;;;;;;8.52;42.32;97355.88;8428934;28;20228;-70
2023/03/05 19:20:55;;;;;;;8.10;6.93;;;;;;;8.53;42.64;97351.53;8445318;28;20227;-69